createdAt,value
2018-08-30T00:00:35.153Z,97730.78
2018-08-30T00:03:04.526Z,97734.22
2018-08-30T00:05:33.273Z,97731.59
2018-08-30T00:08:02.439Z,97731.55
2018-08-30T00:10:31.087Z,97739.31
2018-08-30T00:12:59.656Z,97735.91
2018-08-30T00:15:28.282Z,97734.28
2018-08-30T00:17:57.711Z,97736.45
2018-08-30T00:20:26.285Z,97732.34
2018-08-30T00:22:54.927Z,97730.17
2018-08-30T00:25:24.491Z,97735.81
2018-08-30T00:27:54.148Z,97732.61
2018-08-30T00:30:23.353Z,97741.86
2018-08-30T00:32:52.028Z,97743.84
2018-08-30T00:35:20.635Z,97751.33
2018-08-30T00:37:49.297Z,97751.77
2018-08-30T00:40:18.643Z,97752.69
2018-08-30T00:42:47.265Z,97757.23
2018-08-30T00:45:16.559Z,97757.19
2018-08-30T00:47:47.263Z,97760.14
2018-08-30T00:50:16.017Z,97751.06
2018-08-30T00:52:45.263Z,97756.15
2018-08-30T00:55:14.987Z,97760.66
2018-08-30T00:57:44.761Z,97767.42
2018-08-30T01:00:14.018Z,97772.94
2018-08-30T01:02:43.312Z,97783.17
2018-08-30T01:05:12.008Z,97780.01
2018-08-30T01:07:41.509Z,97781.71
2018-08-30T01:10:11.134Z,97788.59
2018-08-30T01:12:55.293Z,97779.05
2018-08-30T01:15:25.698Z,97788.24
2018-08-30T01:17:55.270Z,97791.72
2018-08-30T01:20:24.864Z,97794.55
2018-08-30T01:22:54.101Z,97795.47
2018-08-30T01:25:22.996Z,97799.28
2018-08-30T01:27:51.565Z,97798.11
2018-08-30T01:30:20.851Z,97798.25
2018-08-30T01:32:49.584Z,97802.50
2018-08-30T01:35:18.773Z,97802.73
2018-08-30T01:37:47.744Z,97803.29
2018-08-30T01:40:16.607Z,97805.14
2018-08-30T01:42:46.098Z,97805.47
2018-08-30T01:45:15.718Z,97813.67
2018-08-30T01:47:45.245Z,97810.59
2018-08-30T01:50:14.843Z,97823.23
2018-08-30T01:52:43.539Z,97822.88
2018-08-30T01:55:12.933Z,97826.33
2018-08-30T01:57:41.562Z,97832.55
2018-08-30T02:00:10.732Z,97837.33
2018-08-30T02:02:40.049Z,97836.66
2018-08-30T02:05:08.882Z,97832.65
2018-08-30T02:07:38.006Z,97838.91
2018-08-30T02:10:06.886Z,97842.20
2018-08-30T02:12:35.910Z,97843.80
2018-08-30T02:15:05.387Z,97840.67
2018-08-30T02:17:34.085Z,97852.66
2018-08-30T02:20:02.718Z,97851.81
2018-08-30T02:22:32.076Z,97854.86
2018-08-30T02:25:00.785Z,97860.22
2018-08-30T02:27:29.850Z,97860.98
2018-08-30T02:29:58.668Z,97867.57
2018-08-30T02:32:27.299Z,97860.75
2018-08-30T02:34:56.180Z,97868.30
2018-08-30T02:37:25.080Z,97815.83
2018-08-30T02:39:53.733Z,97866.25
2018-08-30T02:42:22.319Z,97859.65
2018-08-30T02:44:50.901Z,97861.13
2018-08-30T02:47:19.502Z,97860.83
2018-08-30T02:49:48.171Z,97859.09
2018-08-30T02:52:16.765Z,97866.73
2018-08-30T02:54:46.208Z,97864.67
2018-08-30T02:57:14.841Z,97868.20
2018-08-30T02:59:43.425Z,97872.88
2018-08-30T03:02:12.030Z,97870.36
2018-08-30T03:04:41.399Z,97868.33
2018-08-30T03:07:09.994Z,97872.98
2018-08-30T03:09:38.586Z,97869.92
2018-08-30T03:12:07.175Z,97876.97
2018-08-30T03:14:36.005Z,97879.02
2018-08-30T03:17:05.266Z,97884.45
2018-08-30T03:19:33.810Z,97883.78
2018-08-30T03:22:02.517Z,97890.13
2018-08-30T03:24:31.122Z,97879.00
2018-08-30T03:26:59.749Z,97879.91
2018-08-30T03:29:32.590Z,97880.36
2018-08-30T03:32:01.301Z,97889.91
2018-08-30T03:34:30.004Z,97882.41
2018-08-30T03:36:59.658Z,97887.65
2018-08-30T03:39:28.343Z,97885.81
2018-08-30T03:41:57.648Z,97891.95
2018-08-30T03:44:26.245Z,97894.00
2018-08-30T03:46:55.432Z,97897.31
2018-08-30T03:49:24.088Z,97897.63
2018-08-30T03:51:52.807Z,97899.80
2018-08-30T03:54:22.729Z,97896.47
2018-08-30T03:56:51.549Z,97897.25
2018-08-30T03:59:20.724Z,97900.08
2018-08-30T04:01:50.109Z,97900.20
2018-08-30T04:04:18.701Z,97898.48
2018-08-30T04:06:48.207Z,97904.41
2018-08-30T04:09:16.813Z,97905.54
2018-08-30T04:11:45.372Z,97910.80
2018-08-30T04:14:14.015Z,97906.25
2018-08-30T04:16:43.409Z,97911.94
2018-08-30T04:19:12.014Z,97900.11
2018-08-30T04:21:41.271Z,97899.43
2018-08-30T04:24:11.008Z,97906.48
2018-08-30T04:26:40.316Z,97908.08
2018-08-30T04:29:09.002Z,97908.88
2018-08-30T04:31:38.767Z,97910.67
2018-08-30T04:34:08.146Z,97912.36
2018-08-30T04:36:36.799Z,97917.14
2018-08-30T04:39:08.000Z,97916.77
2018-08-30T04:41:36.917Z,97919.19
2018-08-30T04:44:05.758Z,97918.39
2018-08-30T04:46:34.428Z,97922.70
2018-08-30T04:49:03.165Z,97919.63
2018-08-30T04:51:32.274Z,97924.05
2018-08-30T04:54:01.071Z,97914.03
2018-08-30T04:56:29.917Z,97918.94
2018-08-30T04:58:58.515Z,97926.42
2018-08-30T05:01:28.039Z,97928.63
2018-08-30T05:03:58.733Z,97941.80
2018-08-30T05:06:27.424Z,97946.72
2018-08-30T05:08:56.220Z,97946.85
2018-08-30T05:11:25.670Z,97948.09
2018-08-30T05:13:54.924Z,97954.12
2018-08-30T05:16:23.662Z,97955.63
2018-08-30T05:18:52.282Z,97964.83
2018-08-30T05:21:20.884Z,97966.28
2018-08-30T05:23:49.585Z,97962.00
2018-08-30T05:26:18.238Z,97968.08
2018-08-30T05:28:47.065Z,97965.95
2018-08-30T05:31:15.744Z,97980.66
2018-08-30T05:33:44.499Z,97982.82
2018-08-30T05:36:13.199Z,97972.48
2018-08-30T05:38:42.590Z,97972.02
2018-08-30T05:41:11.152Z,97969.02
2018-08-30T05:43:39.763Z,97973.05
2018-08-30T05:46:08.365Z,97974.90
2018-08-30T05:48:37.067Z,97967.42
2018-08-30T05:51:06.116Z,97973.20
2018-08-30T05:53:34.817Z,97975.88
2018-08-30T05:56:03.929Z,97979.95
2018-08-30T05:58:32.648Z,97979.22
2018-08-30T06:01:01.405Z,97982.34
2018-08-30T06:03:30.059Z,97981.55
2018-08-30T06:05:58.652Z,97984.98
2018-08-30T06:08:27.260Z,97986.11
2018-08-30T06:10:55.863Z,97988.27
2018-08-30T06:13:25.233Z,97988.18
2018-08-30T06:15:54.653Z,97992.44
2018-08-30T06:18:23.652Z,97993.52
2018-08-30T06:20:52.577Z,98000.00
2018-08-30T06:23:21.429Z,97998.16
2018-08-30T06:25:50.124Z,98001.69
2018-08-30T06:28:19.671Z,98000.30
2018-08-30T06:30:48.930Z,98008.48
2018-08-30T06:33:17.830Z,98016.19
2018-08-30T06:35:46.755Z,98010.09
2018-08-30T06:38:15.425Z,98018.83
2018-08-30T06:40:44.646Z,98015.02
2018-08-30T06:43:13.472Z,98010.72
2018-08-30T06:45:42.237Z,98011.66
2018-08-30T06:48:10.867Z,98014.55
2018-08-30T06:50:40.197Z,98022.91
2018-08-30T06:53:08.837Z,98020.27
2018-08-30T06:55:37.495Z,98020.78
2018-08-30T06:58:06.119Z,98022.10
2018-08-30T07:00:35.402Z,98038.44
2018-08-30T07:03:04.169Z,98031.50
2018-08-30T07:05:32.828Z,98031.64
2018-08-30T07:08:01.647Z,98030.02
2018-08-30T07:10:30.211Z,98031.38
2018-08-30T07:12:59.125Z,98036.00
2018-08-30T07:15:27.796Z,98036.02
2018-08-30T07:17:56.582Z,98041.47
2018-08-30T07:20:25.897Z,98044.14
2018-08-30T07:22:55.139Z,98040.40
2018-08-30T07:25:23.812Z,98050.97
2018-08-30T07:27:53.006Z,98043.36
2018-08-30T07:30:21.871Z,98053.32
2018-08-30T07:32:50.444Z,98061.19
2018-08-30T07:35:19.137Z,98061.59
2018-08-30T07:37:48.708Z,98075.27
2018-08-30T07:40:18.077Z,98075.28
2018-08-30T07:42:46.650Z,98081.63
2018-08-30T07:45:15.267Z,98075.28
2018-08-30T07:47:43.848Z,98075.06
2018-08-30T07:50:13.163Z,98080.13
2018-08-30T07:52:41.792Z,98089.73
2018-08-30T07:55:11.254Z,98089.79
2018-08-30T07:57:40.624Z,98091.08
2018-08-30T08:00:09.397Z,98095.61
2018-08-30T08:02:38.936Z,98088.43
2018-08-30T08:05:07.542Z,98095.95
2018-08-30T08:07:36.279Z,98098.67
2018-08-30T08:10:05.757Z,98102.43
2018-08-30T08:12:34.424Z,98108.45
2018-08-30T08:15:03.786Z,98106.09
2018-08-30T08:17:33.190Z,98107.52
2018-08-30T08:20:01.797Z,98115.70
2018-08-30T08:22:30.461Z,98114.77
2018-08-30T08:24:59.716Z,98111.67
2018-08-30T08:27:28.339Z,98115.55
2018-08-30T08:29:58.172Z,98111.38
2018-08-30T08:32:27.462Z,98112.80
2018-08-30T08:34:56.060Z,98116.08
2018-08-30T08:37:25.376Z,98114.12
2018-08-30T08:39:54.073Z,98114.83
2018-08-30T08:42:22.750Z,98113.39
2018-08-30T08:44:52.040Z,98112.93
2018-08-30T08:47:20.643Z,98106.36
2018-08-30T08:49:50.200Z,98116.16
2018-08-30T08:52:18.821Z,98115.45
2018-08-30T08:54:47.562Z,98106.61
2018-08-30T08:57:16.651Z,98110.14
2018-08-30T08:59:45.389Z,98112.41
2018-08-30T09:02:14.084Z,98109.11
2018-08-30T09:04:43.285Z,98117.19
2018-08-30T09:07:11.901Z,98116.32
2018-08-30T09:09:40.503Z,98118.72
2018-08-30T09:12:09.890Z,98116.78
2018-08-30T09:14:38.550Z,98122.32
2018-08-30T09:17:07.943Z,98119.13
2018-08-30T09:19:36.574Z,98114.05
2018-08-30T09:22:05.196Z,98115.88
2018-08-30T09:24:34.536Z,98121.45
2018-08-30T09:27:03.173Z,98108.53
2018-08-30T09:29:32.578Z,98108.52
2018-08-30T09:32:01.417Z,98117.03
2018-08-30T09:34:30.148Z,98117.80
2018-08-30T09:36:58.783Z,98118.09
2018-08-30T09:39:27.749Z,98118.23
2018-08-30T09:41:56.360Z,98120.80
2018-08-30T09:44:25.917Z,98121.80
2018-08-30T09:46:54.539Z,98123.16
2018-08-30T09:49:23.945Z,98123.20
2018-08-30T09:51:52.617Z,98118.89
2018-08-30T09:54:21.243Z,98117.97
2018-08-30T09:56:50.619Z,98119.88
2018-08-30T09:59:19.421Z,98115.25
2018-08-30T10:01:51.403Z,98116.05
2018-08-30T10:04:21.068Z,98106.17
2018-08-30T10:06:49.714Z,98104.33
2018-08-30T10:09:18.367Z,98111.99
2018-08-30T10:11:46.930Z,98107.55
2018-08-30T10:14:15.547Z,98107.33
2018-08-30T10:16:44.234Z,98101.91
2018-08-30T10:19:13.314Z,98104.53
2018-08-30T10:21:42.085Z,98097.05
2018-08-30T10:24:10.690Z,98097.24
2018-08-30T10:26:40.023Z,98099.41
2018-08-30T10:29:09.271Z,98099.84
2018-08-30T10:31:37.965Z,98102.70
2018-08-30T10:34:06.698Z,98104.00
2018-08-30T10:36:35.369Z,98104.25
2018-08-30T10:39:05.908Z,98095.86
2018-08-30T10:41:34.656Z,98103.23
2018-08-30T10:44:03.786Z,98102.83
2018-08-30T10:46:32.475Z,98096.26
2018-08-30T10:49:01.263Z,98100.27
2018-08-30T10:51:30.722Z,98097.62
2018-08-30T10:54:00.185Z,98100.85
2018-08-30T10:56:29.627Z,98099.92
2018-08-30T10:58:58.440Z,98102.03
2018-08-30T11:01:28.051Z,98093.03
2018-08-30T11:03:57.094Z,98091.30
2018-08-30T11:06:25.843Z,98093.14
2018-08-30T11:08:54.476Z,98091.25
2018-08-30T11:11:24.042Z,98091.26
2018-08-30T11:13:52.695Z,98097.02
2018-08-30T11:16:22.228Z,98102.18
2018-08-30T11:18:51.900Z,98099.92
2018-08-30T11:21:20.986Z,98092.20
2018-08-30T11:23:49.684Z,98095.37
2018-08-30T11:26:18.335Z,98101.45
2018-08-30T11:28:51.224Z,98083.62
2018-08-30T11:31:19.891Z,98088.27
2018-08-30T11:33:48.570Z,98093.11
2018-08-30T11:36:17.174Z,98087.51
2018-08-30T11:38:45.889Z,98095.41
2018-08-30T11:41:14.496Z,98091.77
2018-08-30T11:43:43.163Z,98097.17
2018-08-30T11:46:11.863Z,98112.92
2018-08-30T11:48:40.608Z,98105.05
2018-08-30T11:51:09.284Z,98101.72
2018-08-30T11:53:38.188Z,98109.75
2018-08-30T11:56:06.847Z,98115.19
2018-08-30T11:58:36.335Z,98117.35
2018-08-30T12:01:05.905Z,98114.95
2018-08-30T12:03:35.387Z,98117.80
2018-08-30T12:06:04.033Z,98119.23
2018-08-30T12:08:33.485Z,98117.50
2018-08-30T12:11:03.366Z,98111.27
2018-08-30T12:13:31.843Z,98105.20
2018-08-30T12:16:00.881Z,98103.05
2018-08-30T12:18:29.535Z,98110.03
2018-08-30T12:20:58.348Z,98111.09
2018-08-30T12:23:27.568Z,98096.91
2018-08-30T12:25:56.249Z,98093.58
2018-08-30T12:28:25.571Z,98096.41
2018-08-30T12:30:54.267Z,98088.98
2018-08-30T12:33:22.944Z,98092.55
2018-08-30T12:35:51.790Z,98087.56
2018-08-30T12:38:21.260Z,98079.16
2018-08-30T12:40:50.836Z,98076.81
2018-08-30T12:43:20.228Z,98085.80
2018-08-30T12:45:49.858Z,98081.13
2018-08-30T12:48:20.653Z,98073.92
2018-08-30T12:50:49.797Z,98065.02
2018-08-30T12:53:19.196Z,98070.93
2018-08-30T12:55:47.924Z,98077.94
2018-08-30T12:58:16.693Z,98075.38
2018-08-30T13:00:46.761Z,98071.33
2018-08-30T13:03:16.131Z,98071.18
2018-08-30T13:05:45.394Z,98077.80
2018-08-30T13:08:14.701Z,98070.38
2018-08-30T13:10:44.566Z,98074.86
2018-08-30T13:13:13.612Z,98073.14
2018-08-30T13:15:42.907Z,98068.45
2018-08-30T13:18:11.442Z,98074.38
2018-08-30T13:20:40.118Z,98062.84
2018-08-30T13:23:09.047Z,98066.70
2018-08-30T13:25:37.924Z,98065.04
2018-08-30T13:28:07.268Z,98066.72
2018-08-30T13:30:36.729Z,98052.89
2018-08-30T13:33:06.456Z,98060.36
2018-08-30T13:35:36.083Z,98062.27
2018-08-30T13:38:05.057Z,98056.89
2018-08-30T13:40:34.243Z,98061.34
2018-08-30T13:43:02.869Z,98060.55
2018-08-30T13:45:32.301Z,98061.48
2018-08-30T13:48:00.888Z,98058.66
2018-08-30T13:50:29.726Z,98067.34
2018-08-30T13:52:58.561Z,98061.20
2018-08-30T13:55:27.484Z,98058.63
2018-08-30T13:57:57.165Z,98064.45
2018-08-30T14:00:25.615Z,98060.45
2018-08-30T14:02:54.499Z,98065.25
2018-08-30T14:05:23.331Z,98056.53
2018-08-30T14:07:51.958Z,98062.76
2018-08-30T14:10:21.546Z,98061.75
2018-08-30T14:12:50.369Z,98061.83
2018-08-30T14:15:19.149Z,98056.00
2018-08-30T14:17:47.905Z,98051.59
2018-08-30T14:20:16.592Z,98050.30
2018-08-30T14:22:45.966Z,98049.54
2018-08-30T14:25:14.733Z,98053.20
2018-08-30T14:27:43.869Z,98048.23
2018-08-30T14:30:12.503Z,98042.87
2018-08-30T14:32:41.208Z,98043.28
2018-08-30T14:35:11.067Z,98041.89
2018-08-30T14:37:40.572Z,98045.08
2018-08-30T14:40:10.748Z,98049.44
2018-08-30T14:42:39.404Z,98046.56
2018-08-30T14:45:09.099Z,98043.89
2018-08-30T14:47:38.394Z,98041.25
2018-08-30T14:50:08.935Z,98045.30
2018-08-30T14:52:38.491Z,98051.19
2018-08-30T14:55:07.980Z,98042.69
2018-08-30T14:57:36.767Z,98044.19
2018-08-30T15:00:05.529Z,98050.72
2018-08-30T15:02:35.017Z,98050.11
2018-08-30T15:05:05.482Z,98055.13
2018-08-30T15:07:34.038Z,98051.53
2018-08-30T15:10:03.400Z,98057.48
2018-08-30T15:12:32.266Z,98049.70
2018-08-30T15:15:01.556Z,98052.97
2018-08-30T15:17:31.124Z,98055.87
2018-08-30T15:20:00.811Z,98053.97
2018-08-30T15:22:30.020Z,98051.56
2018-08-30T15:24:58.644Z,98052.33
2018-08-30T15:27:27.353Z,98056.23
2018-08-30T15:29:56.105Z,98057.61
2018-08-30T15:32:25.549Z,98057.65
2018-08-30T15:34:54.660Z,98062.42
2018-08-30T15:37:23.321Z,98064.96
2018-08-30T15:39:52.045Z,98059.19
2018-08-30T15:42:21.638Z,98058.41
2018-08-30T15:44:50.217Z,98066.03
2018-08-30T15:47:19.544Z,98067.68
2018-08-30T15:49:48.359Z,98069.19
2018-08-30T15:52:18.525Z,98072.63
2018-08-30T15:54:47.711Z,98070.48
2018-08-30T15:57:16.674Z,98068.41
2018-08-30T15:59:45.457Z,98070.65
2018-08-30T16:02:14.462Z,98071.58
2018-08-30T16:04:43.256Z,98071.50
2018-08-30T16:07:12.061Z,98075.54
2018-08-30T16:09:40.652Z,98076.38
2018-08-30T16:12:10.075Z,98073.77
2018-08-30T16:14:39.593Z,98073.67
2018-08-30T16:17:08.455Z,98071.66
2018-08-30T16:19:37.427Z,98083.28
2018-08-30T16:22:06.317Z,98077.45
2018-08-30T16:24:35.850Z,98076.16
2018-08-30T16:27:05.044Z,98073.78
2018-08-30T16:29:35.077Z,98081.96
2018-08-30T16:32:03.910Z,98086.58
2018-08-30T16:34:32.789Z,98074.14
2018-08-30T16:37:01.709Z,98074.02
2018-08-30T16:39:31.164Z,98072.86
2018-08-30T16:42:00.640Z,98086.80
2018-08-30T16:44:30.065Z,98086.42
2018-08-30T16:46:58.789Z,98087.77
2018-08-30T16:49:27.693Z,98096.53
